sensor_id;sensor_type;location;lat;lon;timestamp;temperature;humidity
48019;DHT22;33786;48.690;9.562;2022-10-16T00:02:03;14.80;99.90
48019;DHT22;33786;48.690;9.562;2022-10-16T00:04:30;14.80;99.90
48019;DHT22;33786;48.690;9.562;2022-10-16T00:06:57;14.70;99.90
48019;DHT22;33786;48.690;9.562;2022-10-16T00:09:23;14.70;99.90
48019;DHT22;33786;48.690;9.562;2022-10-16T00:11:50;14.70;99.90
48019;DHT22;33786;48.690;9.562;2022-10-16T00:14:21;14.70;99.90
48019;DHT22;33786;48.690;9.562;2022-10-16T00:16:51;14.60;99.90
48019;DHT22;33786;48.690;9.562;2022-10-16T00:19:18;14.70;99.90
48019;DHT22;33786;48.690;9.562;2022-10-16T00:21:46;14.60;99.90
48019;DHT22;33786;48.690;9.562;2022-10-16T00:24:13;14.60;99.90
48019;DHT22;33786;48.690;9.562;2022-10-16T00:26:40;14.60;99.90
48019;DHT22;33786;48.690;9.562;2022-10-16T00:29:08;14.60;99.90
48019;DHT22;33786;48.690;9.562;2022-10-16T00:31:35;14.60;99.90
48019;DHT22;33786;48.690;9.562;2022-10-16T00:34:02;14.60;99.90
48019;DHT22;33786;48.690;9.562;2022-10-16T00:36:29;14.60;99.90
48019;DHT22;33786;48.690;9.562;2022-10-16T00:38:57;14.60;99.90
48019;DHT22;33786;48.690;9.562;2022-10-16T00:41:31;14.50;99.90
48019;DHT22;33786;48.690;9.562;2022-10-16T00:44:02;14.50;99.90
48019;DHT22;33786;48.690;9.562;2022-10-16T00:46:35;14.40;99.90
48019;DHT22;33786;48.690;9.562;2022-10-16T00:49:05;14.40;99.90
48019;DHT22;33786;48.690;9.562;2022-10-16T00:51:34;14.40;99.90
48019;DHT22;33786;48.690;9.562;2022-10-16T00:54:02;14.30;99.90
48019;DHT22;33786;48.690;9.562;2022-10-16T00:56:30;14.30;99.90
48019;DHT22;33786;48.690;9.562;2022-10-16T00:58:56;14.30;99.90
48019;DHT22;33786;48.690;9.562;2022-10-16T01:01:24;14.30;99.90
48019;DHT22;33786;48.690;9.562;2022-10-16T01:03:52;14.30;99.90
48019;DHT22;33786;48.690;9.562;2022-10-16T01:06:28;14.20;99.90
48019;DHT22;33786;48.690;9.562;2022-10-16T01:09:14;14.10;99.90
48019;DHT22;33786;48.690;9.562;2022-10-16T01:11:51;14.10;99.90
48019;DHT22;33786;48.690;9.562;2022-10-16T01:14:23;14.00;99.90
48019;DHT22;33786;48.690;9.562;2022-10-16T01:16:55;14.00;99.90
48019;DHT22;33786;48.690;9.562;2022-10-16T01:22:09;14.00;99.90
48019;DHT22;33786;48.690;9.562;2022-10-16T01:34:50;13.80;99.90
48019;DHT22;33786;48.690;9.562;2022-10-16T01:37:25;13.80;99.90
48019;DHT22;33786;48.690;9.562;2022-10-16T01:39:55;13.80;99.90
48019;DHT22;33786;48.690;9.562;2022-10-16T01:42:26;13.80;99.90
48019;DHT22;33786;48.690;9.562;2022-10-16T01:44:55;13.80;99.90
48019;DHT22;33786;48.690;9.562;2022-10-16T01:47:23;13.70;99.90
48019;DHT22;33786;48.690;9.562;2022-10-16T01:49:52;13.80;99.90
48019;DHT22;33786;48.690;9.562;2022-10-16T01:52:21;13.80;99.90
48019;DHT22;33786;48.690;9.562;2022-10-16T01:54:50;13.80;99.90
48019;DHT22;33786;48.690;9.562;2022-10-16T01:57:22;13.80;99.90
48019;DHT22;33786;48.690;9.562;2022-10-16T01:59:52;13.80;99.90
48019;DHT22;33786;48.690;9.562;2022-10-16T02:02:21;13.80;99.90
48019;DHT22;33786;48.690;9.562;2022-10-16T02:07:40;13.80;99.90
48019;DHT22;33786;48.690;9.562;2022-10-16T02:10:11;13.80;99.90
48019;DHT22;33786;48.690;9.562;2022-10-16T02:12:39;13.80;99.90
48019;DHT22;33786;48.690;9.562;2022-10-16T02:15:11;13.90;99.90
48019;DHT22;33786;48.690;9.562;2022-10-16T02:17:38;13.90;99.90
48019;DHT22;33786;48.690;9.562;2022-10-16T02:20:05;13.90;99.90
48019;DHT22;33786;48.690;9.562;2022-10-16T02:22:33;13.90;99.90
48019;DHT22;33786;48.690;9.562;2022-10-16T02:25:10;13.90;99.90
48019;DHT22;33786;48.690;9.562;2022-10-16T02:30:39;13.90;99.90
48019;DHT22;33786;48.690;9.562;2022-10-16T02:33:10;13.90;99.90
48019;DHT22;33786;48.690;9.562;2022-10-16T02:35:38;13.90;99.90
48019;DHT22;33786;48.690;9.562;2022-10-16T02:38:07;13.90;99.90
48019;DHT22;33786;48.690;9.562;2022-10-16T02:40:33;13.90;99.90
48019;DHT22;33786;48.690;9.562;2022-10-16T02:43:04;13.90;99.90
48019;DHT22;33786;48.690;9.562;2022-10-16T02:45:31;13.90;99.90
48019;DHT22;33786;48.690;9.562;2022-10-16T02:47:58;13.90;99.90
48019;DHT22;33786;48.690;9.562;2022-10-16T02:50:24;13.90;99.90
48019;DHT22;33786;48.690;9.562;2022-10-16T02:52:51;14.00;99.90
48019;DHT22;33786;48.690;9.562;2022-10-16T02:55:18;14.00;99.90
48019;DHT22;33786;48.690;9.562;2022-10-16T02:57:45;14.00;99.90
48019;DHT22;33786;48.690;9.562;2022-10-16T03:00:13;14.00;99.90
48019;DHT22;33786;48.690;9.562;2022-10-16T03:02:43;14.00;99.90
48019;DHT22;33786;48.690;9.562;2022-10-16T03:05:10;14.10;99.90
48019;DHT22;33786;48.690;9.562;2022-10-16T03:07:37;14.10;99.90
48019;DHT22;33786;48.690;9.562;2022-10-16T03:10:06;14.10;99.90
48019;DHT22;33786;48.690;9.562;2022-10-16T03:12:35;14.00;99.90
48019;DHT22;33786;48.690;9.562;2022-10-16T03:15:02;14.10;99.90
48019;DHT22;33786;48.690;9.562;2022-10-16T03:17:29;14.10;99.90
48019;DHT22;33786;48.690;9.562;2022-10-16T03:19:57;14.10;99.90
48019;DHT22;33786;48.690;9.562;2022-10-16T03:22:23;14.10;99.90
48019;DHT22;33786;48.690;9.562;2022-10-16T03:24:53;14.00;99.90
48019;DHT22;33786;48.690;9.562;2022-10-16T03:27:19;14.10;99.90
48019;DHT22;33786;48.690;9.562;2022-10-16T03:29:46;14.00;99.90
48019;DHT22;33786;48.690;9.562;2022-10-16T03:32:12;14.00;99.90
48019;DHT22;33786;48.690;9.562;2022-10-16T03:34:39;14.00;99.90
48019;DHT22;33786;48.690;9.562;2022-10-16T03:37:06;14.00;99.90
48019;DHT22;33786;48.690;9.562;2022-10-16T03:39:33;14.00;99.90
48019;DHT22;33786;48.690;9.562;2022-10-16T03:41:59;13.90;99.90
48019;DHT22;33786;48.690;9.562;2022-10-16T03:44:26;14.00;99.90
48019;DHT22;33786;48.690;9.562;2022-10-16T03:46:53;14.00;99.90
48019;DHT22;33786;48.690;9.562;2022-10-16T03:49:20;14.00;99.90
48019;DHT22;33786;48.690;9.562;2022-10-16T03:51:47;14.00;99.90
48019;DHT22;33786;48.690;9.562;2022-10-16T03:54:14;14.00;99.90
48019;DHT22;33786;48.690;9.562;2022-10-16T03:56:40;14.00;99.90
48019;DHT22;33786;48.690;9.562;2022-10-16T03:59:10;13.90;99.90
48019;DHT22;33786;48.690;9.562;2022-10-16T04:01:37;13.90;99.90
48019;DHT22;33786;48.690;9.562;2022-10-16T04:04:03;13.80;99.90
48019;DHT22;33786;48.690;9.562;2022-10-16T04:06:30;13.80;99.90
48019;DHT22;33786;48.690;9.562;2022-10-16T04:09:00;13.80;99.90
48019;DHT22;33786;48.690;9.562;2022-10-16T04:11:26;13.80;99.90
48019;DHT22;33786;48.690;9.562;2022-10-16T04:13:53;13.70;99.90
48019;DHT22;33786;48.690;9.562;2022-10-16T04:16:20;13.70;99.90
48019;DHT22;33786;48.690;9.562;2022-10-16T04:18:47;13.70;99.90
48019;DHT22;33786;48.690;9.562;2022-10-16T04:21:13;13.80;99.90
48019;DHT22;33786;48.690;9.562;2022-10-16T04:23:41;13.70;99.90
48019;DHT22;33786;48.690;9.562;2022-10-16T04:26:08;13.70;99.90
48019;DHT22;33786;48.690;9.562;2022-10-16T04:28:36;13.70;99.90
48019;DHT22;33786;48.690;9.562;2022-10-16T04:31:03;13.70;99.90
48019;DHT22;33786;48.690;9.562;2022-10-16T04:33:30;13.70;99.90
48019;DHT22;33786;48.690;9.562;2022-10-16T04:35:57;13.60;99.90
48019;DHT22;33786;48.690;9.562;2022-10-16T04:38:24;13.60;99.90
48019;DHT22;33786;48.690;9.562;2022-10-16T04:40:51;13.60;99.90
48019;DHT22;33786;48.690;9.562;2022-10-16T04:43:18;13.60;99.90
48019;DHT22;33786;48.690;9.562;2022-10-16T04:45:45;13.60;99.90
48019;DHT22;33786;48.690;9.562;2022-10-16T04:48:11;13.60;99.90
48019;DHT22;33786;48.690;9.562;2022-10-16T04:50:41;13.60;99.90
48019;DHT22;33786;48.690;9.562;2022-10-16T04:53:08;13.60;99.90
48019;DHT22;33786;48.690;9.562;2022-10-16T04:55:34;13.60;99.90
48019;DHT22;33786;48.690;9.562;2022-10-16T04:58:01;13.60;99.90
48019;DHT22;33786;48.690;9.562;2022-10-16T05:00:28;13.60;99.90
48019;DHT22;33786;48.690;9.562;2022-10-16T05:02:55;13.60;99.90
48019;DHT22;33786;48.690;9.562;2022-10-16T05:05:23;13.60;99.90
48019;DHT22;33786;48.690;9.562;2022-10-16T05:07:51;13.60;99.90
48019;DHT22;33786;48.690;9.562;2022-10-16T05:10:17;13.60;99.90
48019;DHT22;33786;48.690;9.562;2022-10-16T05:12:46;13.60;99.90
48019;DHT22;33786;48.690;9.562;2022-10-16T05:15:13;13.60;99.90
48019;DHT22;33786;48.690;9.562;2022-10-16T05:17:40;13.50;99.90
48019;DHT22;33786;48.690;9.562;2022-10-16T05:20:10;13.50;99.90
48019;DHT22;33786;48.690;9.562;2022-10-16T05:22:37;13.50;99.90
48019;DHT22;33786;48.690;9.562;2022-10-16T05:25:04;13.60;99.90
48019;DHT22;33786;48.690;9.562;2022-10-16T05:27:31;13.50;99.90
48019;DHT22;33786;48.690;9.562;2022-10-16T05:30:00;13.60;99.90
48019;DHT22;33786;48.690;9.562;2022-10-16T05:32:27;13.60;99.90
48019;DHT22;33786;48.690;9.562;2022-10-16T05:34:53;13.50;99.90
48019;DHT22;33786;48.690;9.562;2022-10-16T05:37:20;13.50;99.90
48019;DHT22;33786;48.690;9.562;2022-10-16T05:39:49;13.50;99.90
48019;DHT22;33786;48.690;9.562;2022-10-16T05:42:16;13.50;99.90
48019;DHT22;33786;48.690;9.562;2022-10-16T05:44:43;13.50;99.90
48019;DHT22;33786;48.690;9.562;2022-10-16T05:47:09;13.50;99.90
48019;DHT22;33786;48.690;9.562;2022-10-16T05:49:37;13.60;99.90
48019;DHT22;33786;48.690;9.562;2022-10-16T05:52:06;13.60;99.90
48019;DHT22;33786;48.690;9.562;2022-10-16T05:54:33;13.60;99.90
48019;DHT22;33786;48.690;9.562;2022-10-16T05:57:00;13.60;99.90
48019;DHT22;33786;48.690;9.562;2022-10-16T05:59:26;13.50;99.90
48019;DHT22;33786;48.690;9.562;2022-10-16T06:01:54;13.50;99.90
48019;DHT22;33786;48.690;9.562;2022-10-16T06:04:23;13.50;99.90
48019;DHT22;33786;48.690;9.562;2022-10-16T06:06:49;13.60;99.90
48019;DHT22;33786;48.690;9.562;2022-10-16T06:09:16;13.70;99.90
48019;DHT22;33786;48.690;9.562;2022-10-16T06:11:43;13.70;99.90
48019;DHT22;33786;48.690;9.562;2022-10-16T06:14:12;13.80;99.90
48019;DHT22;33786;48.690;9.562;2022-10-16T06:16:39;14.00;99.90
48019;DHT22;33786;48.690;9.562;2022-10-16T06:19:05;14.10;99.90
48019;DHT22;33786;48.690;9.562;2022-10-16T06:21:33;14.30;99.90
48019;DHT22;33786;48.690;9.562;2022-10-16T06:24:00;14.50;99.90
48019;DHT22;33786;48.690;9.562;2022-10-16T06:26:27;14.70;99.90
48019;DHT22;33786;48.690;9.562;2022-10-16T06:28:55;14.90;99.90
48019;DHT22;33786;48.690;9.562;2022-10-16T06:31:22;15.20;99.90
48019;DHT22;33786;48.690;9.562;2022-10-16T06:33:52;15.60;99.90
48019;DHT22;33786;48.690;9.562;2022-10-16T06:36:18;16.30;99.90
48019;DHT22;33786;48.690;9.562;2022-10-16T06:38:45;16.90;99.90
48019;DHT22;33786;48.690;9.562;2022-10-16T06:41:15;17.50;99.90
48019;DHT22;33786;48.690;9.562;2022-10-16T06:43:43;17.70;99.90
48019;DHT22;33786;48.690;9.562;2022-10-16T06:46:14;17.60;99.90
48019;DHT22;33786;48.690;9.562;2022-10-16T06:48:41;18.00;99.90
48019;DHT22;33786;48.690;9.562;2022-10-16T06:53:47;20.60;99.90
48019;DHT22;33786;48.690;9.562;2022-10-16T06:56:29;22.70;99.90
48019;DHT22;33786;48.690;9.562;2022-10-16T06:59:01;22.30;99.90
48019;DHT22;33786;48.690;9.562;2022-10-16T07:01:28;21.70;99.90
48019;DHT22;33786;48.690;9.562;2022-10-16T07:03:55;20.90;99.90
48019;DHT22;33786;48.690;9.562;2022-10-16T07:06:22;20.30;99.90
48019;DHT22;33786;48.690;9.562;2022-10-16T07:08:49;19.90;99.90
48019;DHT22;33786;48.690;9.562;2022-10-16T07:11:20;19.70;99.90
48019;DHT22;33786;48.690;9.562;2022-10-16T07:13:47;19.60;99.90
48019;DHT22;33786;48.690;9.562;2022-10-16T07:16:22;19.50;99.90
48019;DHT22;33786;48.690;9.562;2022-10-16T07:18:49;19.20;99.90
48019;DHT22;33786;48.690;9.562;2022-10-16T07:21:28;19.00;99.90
48019;DHT22;33786;48.690;9.562;2022-10-16T07:23:59;18.70;99.90
48019;DHT22;33786;48.690;9.562;2022-10-16T07:26:31;18.40;99.90
48019;DHT22;33786;48.690;9.562;2022-10-16T07:28:58;18.20;99.90
48019;DHT22;33786;48.690;9.562;2022-10-16T07:31:25;18.00;99.90
48019;DHT22;33786;48.690;9.562;2022-10-16T07:33:52;17.80;99.90
48019;DHT22;33786;48.690;9.562;2022-10-16T07:36:22;17.70;99.90
48019;DHT22;33786;48.690;9.562;2022-10-16T07:38:48;17.50;99.90
48019;DHT22;33786;48.690;9.562;2022-10-16T07:41:19;17.50;99.90
48019;DHT22;33786;48.690;9.562;2022-10-16T07:43:46;17.40;99.90
48019;DHT22;33786;48.690;9.562;2022-10-16T07:46:13;17.30;99.90
48019;DHT22;33786;48.690;9.562;2022-10-16T07:48:41;17.30;99.90
48019;DHT22;33786;48.690;9.562;2022-10-16T07:51:12;17.30;99.90
48019;DHT22;33786;48.690;9.562;2022-10-16T07:53:39;17.40;99.90
48019;DHT22;33786;48.690;9.562;2022-10-16T07:56:06;17.40;99.90
48019;DHT22;33786;48.690;9.562;2022-10-16T07:58:36;17.50;99.90
48019;DHT22;33786;48.690;9.562;2022-10-16T08:01:06;17.50;99.90
48019;DHT22;33786;48.690;9.562;2022-10-16T08:03:33;17.60;99.90
48019;DHT22;33786;48.690;9.562;2022-10-16T08:06:03;17.50;99.90
48019;DHT22;33786;48.690;9.562;2022-10-16T08:08:34;17.60;99.90
48019;DHT22;33786;48.690;9.562;2022-10-16T08:11:01;17.60;99.90
48019;DHT22;33786;48.690;9.562;2022-10-16T08:13:30;17.70;99.90
48019;DHT22;33786;48.690;9.562;2022-10-16T08:15:57;17.70;99.90
48019;DHT22;33786;48.690;9.562;2022-10-16T08:18:24;17.80;99.90
48019;DHT22;33786;48.690;9.562;2022-10-16T08:20:57;17.80;99.90
48019;DHT22;33786;48.690;9.562;2022-10-16T08:23:24;17.80;99.90
48019;DHT22;33786;48.690;9.562;2022-10-16T08:25:53;17.70;99.90
48019;DHT22;33786;48.690;9.562;2022-10-16T08:28:22;17.70;99.90
48019;DHT22;33786;48.690;9.562;2022-10-16T08:30:49;17.70;99.90
48019;DHT22;33786;48.690;9.562;2022-10-16T08:33:16;17.80;99.90
48019;DHT22;33786;48.690;9.562;2022-10-16T08:35:49;17.90;99.90
48019;DHT22;33786;48.690;9.562;2022-10-16T08:38:16;18.00;99.90
48019;DHT22;33786;48.690;9.562;2022-10-16T08:40:43;18.10;99.90
48019;DHT22;33786;48.690;9.562;2022-10-16T08:48:14;18.40;99.90
48019;DHT22;33786;48.690;9.562;2022-10-16T08:50:46;18.60;99.90
48019;DHT22;33786;48.690;9.562;2022-10-16T08:53:15;18.80;99.90
48019;DHT22;33786;48.690;9.562;2022-10-16T08:55:45;19.00;99.90
48019;DHT22;33786;48.690;9.562;2022-10-16T08:58:13;19.00;99.90
48019;DHT22;33786;48.690;9.562;2022-10-16T09:00:40;19.20;99.90
48019;DHT22;33786;48.690;9.562;2022-10-16T09:08:22;19.70;99.90
48019;DHT22;33786;48.690;9.562;2022-10-16T09:10:57;19.70;99.90
48019;DHT22;33786;48.690;9.562;2022-10-16T09:13:28;19.60;99.90
48019;DHT22;33786;48.690;9.562;2022-10-16T09:16:38;19.40;99.90
48019;DHT22;33786;48.690;9.562;2022-10-16T09:21:21;19.30;99.90
48019;DHT22;33786;48.690;9.562;2022-10-16T09:23:49;19.30;99.90
48019;DHT22;33786;48.690;9.562;2022-10-16T09:26:17;19.20;99.90
48019;DHT22;33786;48.690;9.562;2022-10-16T09:28:48;19.30;99.90
48019;DHT22;33786;48.690;9.562;2022-10-16T09:31:15;19.30;99.90
48019;DHT22;33786;48.690;9.562;2022-10-16T09:33:44;19.30;99.90
48019;DHT22;33786;48.690;9.562;2022-10-16T09:36:11;19.30;99.90
48019;DHT22;33786;48.690;9.562;2022-10-16T09:38:39;19.50;99.90
48019;DHT22;33786;48.690;9.562;2022-10-16T09:43:42;19.90;99.90
48019;DHT22;33786;48.690;9.562;2022-10-16T09:46:31;20.00;99.90
48019;DHT22;33786;48.690;9.562;2022-10-16T09:48:59;20.10;99.90
48019;DHT22;33786;48.690;9.562;2022-10-16T09:51:27;20.50;99.90
48019;DHT22;33786;48.690;9.562;2022-10-16T09:54:14;20.80;99.90
48019;DHT22;33786;48.690;9.562;2022-10-16T09:56:41;20.90;99.90
48019;DHT22;33786;48.690;9.562;2022-10-16T09:59:10;21.40;99.90
48019;DHT22;33786;48.690;9.562;2022-10-16T10:01:41;21.80;99.90
48019;DHT22;33786;48.690;9.562;2022-10-16T10:04:09;22.00;99.90
48019;DHT22;33786;48.690;9.562;2022-10-16T10:06:37;22.10;99.90
48019;DHT22;33786;48.690;9.562;2022-10-16T10:11:44;22.30;99.90
48019;DHT22;33786;48.690;9.562;2022-10-16T10:14:24;22.10;99.90
48019;DHT22;33786;48.690;9.562;2022-10-16T10:16:52;22.00;99.90
48019;DHT22;33786;48.690;9.562;2022-10-16T10:19:27;22.10;99.90
48019;DHT22;33786;48.690;9.562;2022-10-16T10:21:58;22.00;99.90
48019;DHT22;33786;48.690;9.562;2022-10-16T10:24:25;21.90;99.90
48019;DHT22;33786;48.690;9.562;2022-10-16T10:27:00;21.80;99.90
48019;DHT22;33786;48.690;9.562;2022-10-16T10:32:07;22.00;99.90
48019;DHT22;33786;48.690;9.562;2022-10-16T10:34:47;22.20;99.90
48019;DHT22;33786;48.690;9.562;2022-10-16T10:37:27;22.80;99.90
48019;DHT22;33786;48.690;9.562;2022-10-16T10:40:22;23.50;99.90
48019;DHT22;33786;48.690;9.562;2022-10-16T10:45:36;23.90;99.90
48019;DHT22;33786;48.690;9.562;2022-10-16T10:50:45;24.60;99.90
48019;DHT22;33786;48.690;9.562;2022-10-16T11:06:23;27.50;96.20
48019;DHT22;33786;48.690;9.562;2022-10-16T11:08:52;28.40;95.20
48019;DHT22;33786;48.690;9.562;2022-10-16T11:11:45;29.10;93.00
48019;DHT22;33786;48.690;9.562;2022-10-16T11:14:23;30.00;90.70
48019;DHT22;33786;48.690;9.562;2022-10-16T11:16:53;30.20;89.70
48019;DHT22;33786;48.690;9.562;2022-10-16T11:27:33;30.30;85.80
48019;DHT22;33786;48.690;9.562;2022-10-16T11:30:03;29.70;85.70
48019;DHT22;33786;48.690;9.562;2022-10-16T11:32:48;28.40;89.30
48019;DHT22;33786;48.690;9.562;2022-10-16T11:35:22;27.70;90.00
48019;DHT22;33786;48.690;9.562;2022-10-16T11:37:50;27.60;91.40
48019;DHT22;33786;48.690;9.562;2022-10-16T11:40:22;27.50;90.50
48019;DHT22;33786;48.690;9.562;2022-10-16T11:43:24;27.30;90.60
48019;DHT22;33786;48.690;9.562;2022-10-16T11:45:45;27.10;91.30
48019;DHT22;33786;48.690;9.562;2022-10-16T11:48:57;26.30;92.40
48019;DHT22;33786;48.690;9.562;2022-10-16T11:51:06;25.90;92.40
48019;DHT22;33786;48.690;9.562;2022-10-16T11:53:53;25.70;92.80
48019;DHT22;33786;48.690;9.562;2022-10-16T11:56:21;25.40;92.70
48019;DHT22;33786;48.690;9.562;2022-10-16T12:01:38;25.30;93.10
48019;DHT22;33786;48.690;9.562;2022-10-16T12:06:34;26.00;92.20
48019;DHT22;33786;48.690;9.562;2022-10-16T12:09:04;26.20;91.80
48019;DHT22;33786;48.690;9.562;2022-10-16T12:11:32;26.20;91.40
48019;DHT22;33786;48.690;9.562;2022-10-16T12:14:07;26.20;91.90
48019;DHT22;33786;48.690;9.562;2022-10-16T12:16:36;26.00;91.20
48019;DHT22;33786;48.690;9.562;2022-10-16T12:19:13;25.60;91.20
48019;DHT22;33786;48.690;9.562;2022-10-16T12:21:42;25.30;92.10
48019;DHT22;33786;48.690;9.562;2022-10-16T12:26:48;25.00;92.10
48019;DHT22;33786;48.690;9.562;2022-10-16T12:31:44;24.90;91.60
48019;DHT22;33786;48.690;9.562;2022-10-16T12:34:27;24.90;91.60
48019;DHT22;33786;48.690;9.562;2022-10-16T12:36:54;25.00;91.40
48019;DHT22;33786;48.690;9.562;2022-10-16T12:39:23;25.20;91.90
48019;DHT22;33786;48.690;9.562;2022-10-16T12:42:00;25.30;92.60
48019;DHT22;33786;48.690;9.562;2022-10-16T12:44:31;25.10;92.40
48019;DHT22;33786;48.690;9.562;2022-10-16T12:46:58;25.10;92.40
48019;DHT22;33786;48.690;9.562;2022-10-16T12:51:55;25.10;91.60
48019;DHT22;33786;48.690;9.562;2022-10-16T12:54:56;25.20;92.40
48019;DHT22;33786;48.690;9.562;2022-10-16T13:15:51;25.10;91.30
48019;DHT22;33786;48.690;9.562;2022-10-16T13:18:25;25.00;91.50
48019;DHT22;33786;48.690;9.562;2022-10-16T13:28:28;25.10;91.50
48019;DHT22;33786;48.690;9.562;2022-10-16T13:30:57;25.20;92.30
48019;DHT22;33786;48.690;9.562;2022-10-16T13:35:55;25.50;91.10
48019;DHT22;33786;48.690;9.562;2022-10-16T13:38:22;25.60;90.20
48019;DHT22;33786;48.690;9.562;2022-10-16T13:40:51;25.70;90.80
48019;DHT22;33786;48.690;9.562;2022-10-16T13:43:18;25.70;90.90
48019;DHT22;33786;48.690;9.562;2022-10-16T13:45:52;25.80;90.90
48019;DHT22;33786;48.690;9.562;2022-10-16T13:48:19;25.60;91.00
48019;DHT22;33786;48.690;9.562;2022-10-16T13:50:46;25.50;90.80
48019;DHT22;33786;48.690;9.562;2022-10-16T13:53:13;25.00;91.00
48019;DHT22;33786;48.690;9.562;2022-10-16T13:55:40;25.10;91.30
48019;DHT22;33786;48.690;9.562;2022-10-16T13:58:07;25.10;91.20
48019;DHT22;33786;48.690;9.562;2022-10-16T14:00:34;25.00;91.10
48019;DHT22;33786;48.690;9.562;2022-10-16T14:03:03;24.90;91.30
48019;DHT22;33786;48.690;9.562;2022-10-16T14:05:30;24.70;91.10
48019;DHT22;33786;48.690;9.562;2022-10-16T14:07:57;24.70;91.30
48019;DHT22;33786;48.690;9.562;2022-10-16T14:10:28;24.60;91.40
48019;DHT22;33786;48.690;9.562;2022-10-16T14:13:03;24.50;91.80
48019;DHT22;33786;48.690;9.562;2022-10-16T14:15:31;24.50;92.10
48019;DHT22;33786;48.690;9.562;2022-10-16T14:17:58;24.60;92.50
48019;DHT22;33786;48.690;9.562;2022-10-16T14:20:26;24.30;92.60
48019;DHT22;33786;48.690;9.562;2022-10-16T14:23:00;24.10;92.70
48019;DHT22;33786;48.690;9.562;2022-10-16T14:25:28;24.10;92.60
48019;DHT22;33786;48.690;9.562;2022-10-16T14:30:49;24.10;93.30
48019;DHT22;33786;48.690;9.562;2022-10-16T14:35:59;24.10;94.00
48019;DHT22;33786;48.690;9.562;2022-10-16T14:38:26;24.10;93.80
48019;DHT22;33786;48.690;9.562;2022-10-16T14:40:53;24.10;94.00
48019;DHT22;33786;48.690;9.562;2022-10-16T14:43:24;24.10;94.30
48019;DHT22;33786;48.690;9.562;2022-10-16T14:45:53;23.90;93.90
48019;DHT22;33786;48.690;9.562;2022-10-16T14:48:20;23.80;94.50
48019;DHT22;33786;48.690;9.562;2022-10-16T14:50:47;23.80;93.50
48019;DHT22;33786;48.690;9.562;2022-10-16T14:53:14;23.80;94.20
48019;DHT22;33786;48.690;9.562;2022-10-16T14:55:41;23.80;93.90
48019;DHT22;33786;48.690;9.562;2022-10-16T15:00:41;23.80;93.80
48019;DHT22;33786;48.690;9.562;2022-10-16T15:03:08;23.80;94.60
48019;DHT22;33786;48.690;9.562;2022-10-16T15:05:34;23.80;94.20
48019;DHT22;33786;48.690;9.562;2022-10-16T15:08:01;23.70;94.00
48019;DHT22;33786;48.690;9.562;2022-10-16T15:10:28;23.70;94.40
48019;DHT22;33786;48.690;9.562;2022-10-16T15:12:55;23.60;95.30
48019;DHT22;33786;48.690;9.562;2022-10-16T15:15:26;23.50;97.50
48019;DHT22;33786;48.690;9.562;2022-10-16T15:17:55;23.40;98.40
48019;DHT22;33786;48.690;9.562;2022-10-16T15:20:23;23.30;98.10
48019;DHT22;33786;48.690;9.562;2022-10-16T15:22:50;23.20;96.20
48019;DHT22;33786;48.690;9.562;2022-10-16T15:27:56;23.10;96.70
48019;DHT22;33786;48.690;9.562;2022-10-16T15:30:22;23.10;96.70
48019;DHT22;33786;48.690;9.562;2022-10-16T15:32:49;23.10;98.80
48019;DHT22;33786;48.690;9.562;2022-10-16T15:35:16;23.00;98.90
48019;DHT22;33786;48.690;9.562;2022-10-16T15:37:43;23.00;99.90
48019;DHT22;33786;48.690;9.562;2022-10-16T15:40:10;22.90;98.70
48019;DHT22;33786;48.690;9.562;2022-10-16T15:42:36;22.80;98.30
48019;DHT22;33786;48.690;9.562;2022-10-16T15:45:03;22.80;98.80
48019;DHT22;33786;48.690;9.562;2022-10-16T15:47:30;22.60;99.10
48019;DHT22;33786;48.690;9.562;2022-10-16T15:49:57;22.60;98.40
48019;DHT22;33786;48.690;9.562;2022-10-16T15:52:24;22.40;98.10
48019;DHT22;33786;48.690;9.562;2022-10-16T15:54:51;22.30;98.30
48019;DHT22;33786;48.690;9.562;2022-10-16T15:57:19;22.20;98.80
48019;DHT22;33786;48.690;9.562;2022-10-16T15:59:46;22.20;99.10
48019;DHT22;33786;48.690;9.562;2022-10-16T16:02:13;22.10;99.10
48019;DHT22;33786;48.690;9.562;2022-10-16T16:04:39;22.10;99.50
48019;DHT22;33786;48.690;9.562;2022-10-16T16:07:10;22.00;99.60
48019;DHT22;33786;48.690;9.562;2022-10-16T16:09:37;22.00;99.90
48019;DHT22;33786;48.690;9.562;2022-10-16T16:12:05;21.90;99.90
48019;DHT22;33786;48.690;9.562;2022-10-16T16:14:31;21.80;99.90
48019;DHT22;33786;48.690;9.562;2022-10-16T16:16:58;21.80;99.90
48019;DHT22;33786;48.690;9.562;2022-10-16T16:19:25;21.70;99.90
48019;DHT22;33786;48.690;9.562;2022-10-16T16:21:51;21.60;99.90
48019;DHT22;33786;48.690;9.562;2022-10-16T16:24:18;21.40;99.90
48019;DHT22;33786;48.690;9.562;2022-10-16T16:26:45;21.30;99.90
48019;DHT22;33786;48.690;9.562;2022-10-16T16:29:13;21.20;99.90
48019;DHT22;33786;48.690;9.562;2022-10-16T16:31:40;21.00;99.90
48019;DHT22;33786;48.690;9.562;2022-10-16T16:34:07;20.90;99.90
48019;DHT22;33786;48.690;9.562;2022-10-16T16:36:35;20.70;99.90
48019;DHT22;33786;48.690;9.562;2022-10-16T16:39:02;20.50;99.90
48019;DHT22;33786;48.690;9.562;2022-10-16T16:41:29;20.50;99.90
48019;DHT22;33786;48.690;9.562;2022-10-16T16:44:06;20.30;99.90
48019;DHT22;33786;48.690;9.562;2022-10-16T16:46:34;20.20;99.90
48019;DHT22;33786;48.690;9.562;2022-10-16T16:49:01;20.10;99.90
48019;DHT22;33786;48.690;9.562;2022-10-16T16:51:28;19.90;99.90
48019;DHT22;33786;48.690;9.562;2022-10-16T16:53:54;19.80;99.90
48019;DHT22;33786;48.690;9.562;2022-10-16T16:56:25;19.70;99.90
48019;DHT22;33786;48.690;9.562;2022-10-16T16:58:53;19.50;99.90
48019;DHT22;33786;48.690;9.562;2022-10-16T17:01:20;19.40;99.90
48019;DHT22;33786;48.690;9.562;2022-10-16T17:03:48;19.30;99.90
48019;DHT22;33786;48.690;9.562;2022-10-16T17:06:17;19.20;99.90
48019;DHT22;33786;48.690;9.562;2022-10-16T17:08:47;19.00;99.90
48019;DHT22;33786;48.690;9.562;2022-10-16T17:11:18;18.90;99.90
48019;DHT22;33786;48.690;9.562;2022-10-16T17:13:45;18.80;99.90
48019;DHT22;33786;48.690;9.562;2022-10-16T17:16:15;18.70;99.90
48019;DHT22;33786;48.690;9.562;2022-10-16T17:18:42;18.60;99.90
48019;DHT22;33786;48.690;9.562;2022-10-16T17:21:09;18.50;99.90
48019;DHT22;33786;48.690;9.562;2022-10-16T17:23:36;18.40;99.90
48019;DHT22;33786;48.690;9.562;2022-10-16T17:26:07;18.20;99.90
48019;DHT22;33786;48.690;9.562;2022-10-16T17:28:34;18.10;99.90
48019;DHT22;33786;48.690;9.562;2022-10-16T17:31:14;18.00;99.90
48019;DHT22;33786;48.690;9.562;2022-10-16T17:33:42;17.90;99.90
48019;DHT22;33786;48.690;9.562;2022-10-16T17:36:09;17.80;99.90
48019;DHT22;33786;48.690;9.562;2022-10-16T17:38:37;17.70;99.90
48019;DHT22;33786;48.690;9.562;2022-10-16T17:41:11;17.60;99.90
48019;DHT22;33786;48.690;9.562;2022-10-16T17:43:38;17.50;99.90